Portada
METAR-TAF:

METAR-TAF

Aeropuertos :

Aeropuerto Internacional Rey Husein

Aqaba, Jordania

latitud: 29-38N, longitud: 035-01E, altitud: 53 m

Observación

El informe se hizo hace 1 hora y 14 minutos, a las 12:00 UTC
Viento 12 kt del norte
Temperatura 40°C
Humedad 16%
Presión 1003 hPa
Visibilidad 10 km o más
sin nubes por debajo de 1500 m y sin presencia de cumulonimbus.

METAR: OJAQ 051200Z 35012KT CAVOK 40/09 Q1003 NOSIG

Hora: 16:14 (13:14 UTC)

Pronóstico

El informe se hizo hace 3 horas y 19 minutos, a las 09:55 UTC
Pronóstico válido del 05 a las 12 UTC al 06 a las 18 UTC
Viento 14 kt del norte
Visibilidad: 7000 m
Probabilidad 30% :
Temporalmente
del 05 a las 12 UTC al 05 a las 16 UTC
Visibilidad: 5000 m
Polvo extendido

TAF: OJAQ 050955Z 0512/0618 36014KT 7000 NSC PROB30 TEMPO 0512/0516 5000 DU

Observaciones y pronósticos meteorológicos de más de 4000 aeropuertos (mensajes METAR y TAF).

Los puntos amarillos y rojos representan las estaciones disponibles.

Ponga el ratón en el punto deseado para ver el nombre de la estación.

Haga clic para ver las observaciones y los pronósticos meteorológicos.

Para cambiar el mapa : haga clic en los botones verdes con una cruz de color negro para hacer un zoom, en el botón verde con un guión para alejar o en las flechas verdes para mapas adyacentes.


METAR-TAF: